createdAt,value
2018-05-23T00:01:03.338Z,15.00
2018-05-23T00:03:30.868Z,15.00
2018-05-23T00:05:58.521Z,14.90
2018-05-23T00:08:26.025Z,14.90
2018-05-23T00:10:53.564Z,14.90
2018-05-23T00:13:21.073Z,14.90
2018-05-23T00:15:48.621Z,14.90
2018-05-23T00:18:16.125Z,14.90
2018-05-23T00:20:43.652Z,14.90
2018-05-23T00:23:11.150Z,14.90
2018-05-23T00:25:38.772Z,14.90
2018-05-23T00:28:06.217Z,14.80
2018-05-23T00:30:33.945Z,14.80
2018-05-23T00:33:01.849Z,14.80
2018-05-23T00:35:29.376Z,14.80
2018-05-23T00:37:56.874Z,14.80
2018-05-23T00:40:24.405Z,14.70
2018-05-23T00:42:51.921Z,14.70
2018-05-23T00:45:19.459Z,14.60
2018-05-23T00:47:47.076Z,14.60
2018-05-23T00:50:14.665Z,14.60
2018-05-23T00:52:42.130Z,14.50
2018-05-23T00:55:21.491Z,14.50
2018-05-23T00:57:49.018Z,14.50
2018-05-23T01:00:16.746Z,14.50
2018-05-23T01:02:44.253Z,14.40
2018-05-23T01:05:11.797Z,14.40
2018-05-23T01:07:39.297Z,14.40
2018-05-23T01:10:06.832Z,14.30
2018-05-23T01:12:34.330Z,14.30
2018-05-23T01:15:01.872Z,14.20
2018-05-23T01:17:29.438Z,14.20
2018-05-23T01:19:57.090Z,14.20
2018-05-23T01:22:24.753Z,14.10
2018-05-23T01:24:52.388Z,14.10
2018-05-23T01:27:20.069Z,14.10
2018-05-23T01:29:47.612Z,14.10
2018-05-23T01:32:15.114Z,14.10
2018-05-23T01:34:42.637Z,14.10
2018-05-23T01:37:10.133Z,14.10
2018-05-23T01:39:37.673Z,14.10
2018-05-23T01:42:05.173Z,14.10
2018-05-23T01:44:32.837Z,14.10
2018-05-23T01:47:00.517Z,14.10
2018-05-23T01:49:28.018Z,14.10
2018-05-23T01:51:55.624Z,14.10
2018-05-23T01:54:23.154Z,14.10
2018-05-23T01:56:51.113Z,14.00
2018-05-23T01:59:19.009Z,13.90
2018-05-23T02:01:46.729Z,13.90
2018-05-23T02:04:14.194Z,13.90
2018-05-23T02:06:42.121Z,13.90
2018-05-23T02:09:09.624Z,13.90
2018-05-23T02:11:37.163Z,14.00
2018-05-23T02:14:05.076Z,13.90
2018-05-23T02:16:32.609Z,13.90
2018-05-23T02:19:00.120Z,14.00
2018-05-23T02:21:27.645Z,14.00
2018-05-23T02:23:55.153Z,14.00
2018-05-23T02:26:22.684Z,14.00
2018-05-23T02:28:51.121Z,14.00
2018-05-23T02:31:18.778Z,14.00
2018-05-23T02:33:46.289Z,14.00
2018-05-23T02:36:14.300Z,14.00
2018-05-23T02:38:41.959Z,14.00
2018-05-23T02:41:09.494Z,14.00
2018-05-23T02:43:37.001Z,14.00
2018-05-23T02:46:04.533Z,13.90
2018-05-23T02:48:33.191Z,13.90
2018-05-23T02:51:00.730Z,13.90
2018-05-23T02:53:30.022Z,13.80
2018-05-23T02:55:57.945Z,13.80
2018-05-23T02:58:25.464Z,13.80
2018-05-23T03:00:53.126Z,13.80
2018-05-23T03:03:20.657Z,13.80
2018-05-23T03:05:48.459Z,13.80
2018-05-23T03:08:15.976Z,13.70
2018-05-23T03:10:43.917Z,13.70
2018-05-23T03:13:11.438Z,13.70
2018-05-23T03:15:38.937Z,13.60
2018-05-23T03:18:06.470Z,13.60
2018-05-23T03:20:33.982Z,13.60
2018-05-23T03:23:01.505Z,13.60
2018-05-23T03:25:29.009Z,13.60
2018-05-23T03:27:56.558Z,13.60
2018-05-23T03:30:24.059Z,13.50
2018-05-23T03:32:51.681Z,13.50
2018-05-23T03:35:19.201Z,13.50
2018-05-23T03:37:47.190Z,13.40
2018-05-23T03:40:14.705Z,13.40
2018-05-23T03:42:42.325Z,13.40
2018-05-23T03:45:09.830Z,13.40
2018-05-23T03:47:37.836Z,13.40
2018-05-23T03:50:05.345Z,13.40
2018-05-23T03:52:32.890Z,13.40
2018-05-23T03:55:00.400Z,13.50
2018-05-23T03:57:27.933Z,13.50
2018-05-23T04:00:07.774Z,13.60
2018-05-23T04:02:47.080Z,13.60
2018-05-23T04:05:26.479Z,13.70
2018-05-23T04:07:54.009Z,13.70
2018-05-23T04:10:21.514Z,13.70
2018-05-23T04:12:49.045Z,13.80
2018-05-23T04:15:16.554Z,13.80
2018-05-23T04:17:44.486Z,13.80
2018-05-23T04:20:13.049Z,13.80
2018-05-23T04:22:40.685Z,13.90
2018-05-23T04:25:08.197Z,13.90
2018-05-23T04:27:35.735Z,14.00
2018-05-23T04:30:03.244Z,14.00
2018-05-23T04:32:30.920Z,14.00
2018-05-23T04:34:58.574Z,14.10
2018-05-23T04:37:26.086Z,14.20
2018-05-23T04:39:53.623Z,14.20
2018-05-23T04:42:21.126Z,14.20
2018-05-23T04:44:48.655Z,14.20
2018-05-23T04:47:16.217Z,14.20
2018-05-23T04:49:43.754Z,14.30
2018-05-23T04:52:11.268Z,14.30
2018-05-23T04:54:38.824Z,14.40
2018-05-23T04:57:06.331Z,14.30
2018-05-23T04:59:33.937Z,14.30
2018-05-23T05:02:01.437Z,14.40
2018-05-23T05:04:28.965Z,14.60
2018-05-23T05:06:56.478Z,14.70
2018-05-23T05:09:24.149Z,14.90
2018-05-23T05:11:51.661Z,15.00
2018-05-23T05:14:19.218Z,15.10
2018-05-23T05:16:46.716Z,15.10
2018-05-23T05:19:14.241Z,15.10
2018-05-23T05:21:42.138Z,15.30
2018-05-23T05:24:09.676Z,15.30
2018-05-23T05:26:37.177Z,15.50
2018-05-23T05:29:04.816Z,15.50
2018-05-23T05:31:32.317Z,15.80
2018-05-23T05:33:59.844Z,15.80
2018-05-23T05:36:27.368Z,16.10
2018-05-23T05:38:54.926Z,16.20
2018-05-23T05:41:22.422Z,16.40
2018-05-23T05:43:51.315Z,16.50
2018-05-23T05:46:19.045Z,16.60
2018-05-23T05:48:46.569Z,16.80
2018-05-23T05:51:14.465Z,17.40
2018-05-23T05:53:42.025Z,17.50
2018-05-23T05:56:09.680Z,18.10
2018-05-23T05:58:37.350Z,18.20
2018-05-23T06:01:04.859Z,18.50
2018-05-23T06:03:32.778Z,18.90
2018-05-23T06:06:00.317Z,19.10
2018-05-23T06:08:27.973Z,19.20
2018-05-23T06:10:55.473Z,19.20
2018-05-23T06:13:22.978Z,19.30
2018-05-23T06:15:50.517Z,19.40
2018-05-23T06:18:18.017Z,19.20
2018-05-23T06:20:45.542Z,19.30
2018-05-23T06:23:13.101Z,19.60
2018-05-23T06:25:41.517Z,19.70
2018-05-23T06:28:09.452Z,19.90
2018-05-23T06:30:36.991Z,20.30
2018-05-23T06:33:04.493Z,20.80
2018-05-23T06:35:32.220Z,20.80
2018-05-23T06:37:59.724Z,20.80
2018-05-23T06:40:27.249Z,21.00
2018-05-23T06:42:55.168Z,21.20
2018-05-23T06:45:22.696Z,21.10
2018-05-23T06:47:50.192Z,21.40
2018-05-23T06:50:17.725Z,22.10
2018-05-23T06:52:45.225Z,22.40
2018-05-23T06:55:12.762Z,22.60
2018-05-23T06:57:40.532Z,23.50
2018-05-23T07:00:08.067Z,23.90
2018-05-23T07:02:35.579Z,24.40
2018-05-23T07:05:03.104Z,24.90
2018-05-23T07:07:30.614Z,25.20
2018-05-23T07:09:58.541Z,25.20
2018-05-23T07:12:26.075Z,25.20
2018-05-23T07:14:53.735Z,25.50
2018-05-23T07:17:21.248Z,26.40
2018-05-23T07:19:49.193Z,26.90
2018-05-23T07:22:16.711Z,27.00
2018-05-23T07:24:44.236Z,27.70
2018-05-23T07:27:12.137Z,28.20
2018-05-23T07:29:39.665Z,28.30
2018-05-23T07:32:07.169Z,29.70
2018-05-23T07:34:34.717Z,31.50
2018-05-23T07:37:02.224Z,32.10
2018-05-23T07:39:29.741Z,31.60
2018-05-23T07:41:57.251Z,32.30
2018-05-23T07:44:24.762Z,32.40
2018-05-23T07:46:52.289Z,33.60
2018-05-23T07:49:19.931Z,34.10
2018-05-23T07:51:47.577Z,34.10
2018-05-23T07:54:15.094Z,34.60
2018-05-23T07:56:42.630Z,34.50
2018-05-23T07:59:10.153Z,34.60
2018-05-23T08:01:37.681Z,34.60
2018-05-23T08:04:05.578Z,35.20
2018-05-23T08:06:33.129Z,35.20
2018-05-23T08:09:00.634Z,35.80
2018-05-23T08:11:28.256Z,35.50
2018-05-23T08:13:55.906Z,36.00
2018-05-23T08:16:23.437Z,35.80
2018-05-23T08:18:51.001Z,35.00
2018-05-23T08:21:18.673Z,35.60
2018-05-23T08:23:46.170Z,36.90
2018-05-23T08:26:13.756Z,38.00
2018-05-23T08:28:41.523Z,38.00
2018-05-23T08:31:09.057Z,37.30
2018-05-23T08:33:36.572Z,36.70
2018-05-23T08:36:04.104Z,36.80
2018-05-23T08:38:31.613Z,36.70
2018-05-23T08:40:59.137Z,36.50
2018-05-23T08:43:26.653Z,36.50
2018-05-23T08:45:54.650Z,37.40
2018-05-23T08:48:22.146Z,37.40
2018-05-23T08:50:50.379Z,36.90
2018-05-23T08:53:17.897Z,36.90
2018-05-23T08:55:45.841Z,36.10
2018-05-23T08:58:13.360Z,36.10
2018-05-23T09:00:40.885Z,35.90
2018-05-23T09:03:08.394Z,36.10
2018-05-23T09:05:35.897Z,37.10
2018-05-23T09:08:03.434Z,36.30
2018-05-23T09:10:31.327Z,37.00
2018-05-23T09:12:58.885Z,37.10
2018-05-23T09:15:26.549Z,37.40
2018-05-23T09:17:54.081Z,38.00
2018-05-23T09:20:21.984Z,36.00
2018-05-23T09:22:49.509Z,35.60
2018-05-23T09:25:17.046Z,35.00
2018-05-23T09:27:44.566Z,34.40
2018-05-23T09:30:12.081Z,34.90
2018-05-23T09:32:39.614Z,34.30
2018-05-23T09:35:07.516Z,33.30
2018-05-23T09:37:36.297Z,33.30
2018-05-23T09:40:03.833Z,34.50
2018-05-23T09:42:31.369Z,34.60
2018-05-23T09:45:00.195Z,35.20
2018-05-23T09:47:27.755Z,36.20
2018-05-23T09:49:55.261Z,36.20
2018-05-23T09:52:22.868Z,36.70
2018-05-23T09:54:50.373Z,36.30
2018-05-23T09:57:17.969Z,34.90
2018-05-23T09:59:45.474Z,33.50
2018-05-23T10:02:13.005Z,32.20
2018-05-23T10:04:40.545Z,32.20
2018-05-23T10:07:08.081Z,33.00
2018-05-23T10:09:35.580Z,34.30
2018-05-23T10:12:03.172Z,35.60
2018-05-23T10:14:31.084Z,36.30
2018-05-23T10:16:58.621Z,36.30
2018-05-23T10:19:26.285Z,35.50
2018-05-23T10:21:53.956Z,32.80
2018-05-23T10:24:21.465Z,31.40
2018-05-23T10:26:48.993Z,32.50
2018-05-23T10:29:16.497Z,32.80
2018-05-23T10:31:44.046Z,33.70
2018-05-23T10:34:11.954Z,33.10
2018-05-23T10:36:39.525Z,33.00
2018-05-23T10:39:07.078Z,33.10
2018-05-23T10:41:34.557Z,32.70
2018-05-23T10:44:03.571Z,32.40
2018-05-23T10:46:31.082Z,32.30
2018-05-23T10:48:58.618Z,33.40
2018-05-23T10:51:26.129Z,33.50
2018-05-23T10:53:54.125Z,32.40
2018-05-23T10:56:21.630Z,32.30
2018-05-23T10:58:49.245Z,31.30
2018-05-23T11:01:16.753Z,28.30
2018-05-23T11:03:44.728Z,26.70
2018-05-23T11:06:12.232Z,26.70
2018-05-23T11:08:39.771Z,25.90
2018-05-23T11:11:07.331Z,25.80
2018-05-23T11:13:34.893Z,25.50
2018-05-23T11:16:02.658Z,25.40
2018-05-23T11:18:30.191Z,25.40
2018-05-23T11:20:57.713Z,25.20
2018-05-23T11:23:25.242Z,25.10
2018-05-23T11:25:52.742Z,25.20
2018-05-23T11:28:20.671Z,25.30
2018-05-23T11:30:48.196Z,25.30
2018-05-23T11:33:16.060Z,25.00
2018-05-23T11:35:43.737Z,24.60
2018-05-23T11:38:11.275Z,24.50
2018-05-23T11:40:38.774Z,24.40
2018-05-23T11:43:06.301Z,24.40
2018-05-23T11:45:33.804Z,24.30
2018-05-23T11:48:01.729Z,24.60
2018-05-23T11:50:29.669Z,24.60
2018-05-23T11:52:57.196Z,24.60
2018-05-23T11:55:25.781Z,24.70
2018-05-23T11:57:53.494Z,24.70
2018-05-23T12:00:21.002Z,24.70
2018-05-23T12:02:48.525Z,24.60
2018-05-23T12:05:16.026Z,24.30
2018-05-23T12:07:43.629Z,24.30
2018-05-23T12:10:11.172Z,24.50
2018-05-23T12:12:38.680Z,24.60
2018-05-23T12:15:06.212Z,24.50
2018-05-23T12:17:33.721Z,24.50
2018-05-23T12:20:01.249Z,24.70
2018-05-23T12:22:28.790Z,24.80
2018-05-23T12:24:56.325Z,24.60
2018-05-23T12:27:23.836Z,24.70
2018-05-23T12:29:51.369Z,24.70
2018-05-23T12:32:18.877Z,24.60
2018-05-23T12:34:46.412Z,24.40
2018-05-23T12:37:13.923Z,24.40
2018-05-23T12:39:41.454Z,24.60
2018-05-23T12:42:08.956Z,24.40
2018-05-23T12:44:36.498Z,24.50
2018-05-23T12:47:04.018Z,24.60
2018-05-23T12:49:31.543Z,24.60
2018-05-23T12:51:59.041Z,24.60
2018-05-23T12:54:26.671Z,24.50
2018-05-23T12:56:54.199Z,24.40
2018-05-23T12:59:21.721Z,24.30
2018-05-23T13:01:49.626Z,24.40
2018-05-23T13:04:18.397Z,24.20
2018-05-23T13:06:45.901Z,24.30
2018-05-23T13:09:13.438Z,24.40
2018-05-23T13:11:40.976Z,24.40
2018-05-23T13:14:08.514Z,24.30
2018-05-23T13:16:36.030Z,24.50
2018-05-23T13:19:03.571Z,24.50
2018-05-23T13:21:31.097Z,24.40
2018-05-23T13:23:58.629Z,24.60
2018-05-23T13:26:26.134Z,24.90
2018-05-23T13:28:53.670Z,25.10
2018-05-23T13:31:21.165Z,24.90
2018-05-23T13:33:48.718Z,24.70
2018-05-23T13:36:16.225Z,24.60
2018-05-23T13:38:43.782Z,24.50
2018-05-23T13:41:11.288Z,24.50
2018-05-23T13:43:38.897Z,24.30
2018-05-23T13:46:06.442Z,24.30
2018-05-23T13:48:33.953Z,24.50
2018-05-23T13:51:01.492Z,24.50
2018-05-23T13:53:29.001Z,24.70
2018-05-23T13:55:56.529Z,24.70
2018-05-23T13:58:24.051Z,24.50
2018-05-23T14:00:51.584Z,24.40
2018-05-23T14:03:19.093Z,24.30
2018-05-23T14:05:46.620Z,24.40
2018-05-23T14:08:14.126Z,24.40
2018-05-23T14:10:42.050Z,24.30
2018-05-23T14:13:09.575Z,24.20
2018-05-23T14:15:37.234Z,24.30
2018-05-23T14:18:04.906Z,24.40
2018-05-23T14:20:32.465Z,24.50
2018-05-23T14:22:59.977Z,24.60
2018-05-23T14:25:27.534Z,24.60
2018-05-23T14:27:55.443Z,24.60
2018-05-23T14:30:22.969Z,24.60
2018-05-23T14:32:50.630Z,24.70
2018-05-23T14:35:18.162Z,24.60
2018-05-23T14:37:45.954Z,24.50
2018-05-23T14:40:13.476Z,24.50
2018-05-23T14:42:40.987Z,24.50
2018-05-23T14:45:08.513Z,24.50
2018-05-23T14:47:36.033Z,24.50
2018-05-23T14:50:03.585Z,24.50
2018-05-23T14:52:31.285Z,24.40
2018-05-23T14:54:58.820Z,24.20
2018-05-23T14:57:26.725Z,23.80
2018-05-23T14:59:54.387Z,23.80
2018-05-23T15:02:22.129Z,23.40
2018-05-23T15:04:49.593Z,23.30
2018-05-23T15:07:17.093Z,23.40
2018-05-23T15:09:45.038Z,23.30
2018-05-23T15:12:12.553Z,23.20
2018-05-23T15:14:40.074Z,23.00
2018-05-23T15:17:08.089Z,22.80
2018-05-23T15:19:35.596Z,22.80
2018-05-23T15:22:03.533Z,22.40
2018-05-23T15:24:31.038Z,22.40
2018-05-23T15:26:58.722Z,22.40
2018-05-23T15:29:26.384Z,22.30
2018-05-23T15:31:53.928Z,22.40
2018-05-23T15:34:21.446Z,22.40
2018-05-23T15:36:49.153Z,22.50
2018-05-23T15:39:16.664Z,22.50
2018-05-23T15:41:44.260Z,22.50
2018-05-23T15:44:11.721Z,22.50
2018-05-23T15:46:39.245Z,22.60
2018-05-23T15:49:06.737Z,22.50
2018-05-23T16:35:14.017Z,22.20
2018-05-23T16:37:41.545Z,22.10
2018-05-23T16:40:09.050Z,22.20
2018-05-23T16:42:36.582Z,22.30
2018-05-23T16:45:04.106Z,22.40
2018-05-23T16:47:31.653Z,22.50
2018-05-23T16:49:59.169Z,22.60
2018-05-23T16:52:26.833Z,22.70
2018-05-23T16:54:54.337Z,22.70
2018-05-23T16:57:21.866Z,22.70
2018-05-23T16:59:49.381Z,22.70
2018-05-23T17:02:16.913Z,22.60
2018-05-23T17:04:44.429Z,22.60
2018-05-23T17:07:12.047Z,22.50
2018-05-23T17:09:39.497Z,22.50
2018-05-23T17:12:07.489Z,22.30
2018-05-23T17:14:35.001Z,22.30
2018-05-23T17:17:02.534Z,22.20
2018-05-23T17:19:30.042Z,22.00
2018-05-23T17:21:57.598Z,22.00
2018-05-23T17:24:25.125Z,21.90
2018-05-23T17:26:52.712Z,21.80
2018-05-23T17:29:21.298Z,21.60
2018-05-23T17:31:48.965Z,21.50
2018-05-23T17:34:16.498Z,21.40
2018-05-23T17:36:44.398Z,21.20
2018-05-23T17:39:13.067Z,21.20
2018-05-23T17:41:40.573Z,21.20
2018-05-23T17:44:08.293Z,21.10
2018-05-23T17:46:35.793Z,21.00
2018-05-23T17:49:03.317Z,21.00
2018-05-23T17:51:30.850Z,20.90
2018-05-23T17:53:58.382Z,20.80
2018-05-23T17:56:26.678Z,20.70
2018-05-23T17:58:54.238Z,20.80
2018-05-23T18:01:21.746Z,20.70
2018-05-23T18:03:49.296Z,20.50
2018-05-23T18:06:16.901Z,20.00
2018-05-23T18:08:44.368Z,19.90
2018-05-23T18:11:11.934Z,18.90
2018-05-23T18:13:39.589Z,18.10
2018-05-23T18:16:07.236Z,17.50
2018-05-23T18:18:35.122Z,16.70
2018-05-23T18:21:02.626Z,16.20
2018-05-23T18:23:30.715Z,15.20
2018-05-23T18:25:58.152Z,15.20
2018-05-23T18:28:26.120Z,14.80
2018-05-23T18:30:53.621Z,14.70
2018-05-23T18:33:22.012Z,14.80
2018-05-23T18:35:49.520Z,15.30
2018-05-23T18:38:17.062Z,15.30
2018-05-23T18:40:44.973Z,15.60
2018-05-23T18:43:12.511Z,15.60
2018-05-23T18:45:40.378Z,15.50
2018-05-23T18:48:07.906Z,15.10
2018-05-23T18:50:35.490Z,15.00
2018-05-23T18:53:03.044Z,15.00
2018-05-23T18:55:31.748Z,15.10
2018-05-23T18:57:59.281Z,15.20
2018-05-23T19:00:26.826Z,15.20
2018-05-23T19:02:54.342Z,15.30
2018-05-23T19:05:22.108Z,15.40
2018-05-23T19:07:49.561Z,15.40
2018-05-23T19:10:17.096Z,15.40
2018-05-23T19:12:44.596Z,15.40
2018-05-23T19:15:12.139Z,15.30
2018-05-23T19:17:39.649Z,15.40
2018-05-23T19:20:07.207Z,15.40
2018-05-23T19:22:34.721Z,15.50
2018-05-23T19:25:02.256Z,15.40
2018-05-23T19:27:29.769Z,15.40
2018-05-23T19:29:57.314Z,15.40
2018-05-23T19:32:24.829Z,15.40
2018-05-23T19:34:52.418Z,15.40
2018-05-23T19:37:19.922Z,15.30
2018-05-23T19:39:47.473Z,15.30
2018-05-23T19:42:14.998Z,15.30
2018-05-23T19:44:42.525Z,15.30
2018-05-23T19:47:10.193Z,15.30
2018-05-23T19:49:37.741Z,15.20
2018-05-23T19:52:05.270Z,15.20
2018-05-23T19:54:32.793Z,15.20
2018-05-23T19:57:01.356Z,15.20
2018-05-23T19:59:28.902Z,15.20
2018-05-23T20:01:56.567Z,15.20
2018-05-23T20:04:24.105Z,15.20
2018-05-23T20:06:51.613Z,15.20
2018-05-23T20:09:19.150Z,15.20
2018-05-23T20:11:46.657Z,15.20
2018-05-23T20:14:14.780Z,15.30
2018-05-23T20:16:42.176Z,15.30
2018-05-23T20:19:10.108Z,15.30
2018-05-23T20:21:37.609Z,15.30
2018-05-23T20:24:05.157Z,15.20
2018-05-23T20:26:32.662Z,15.00
2018-05-23T20:29:00.174Z,14.90
2018-05-23T20:31:27.701Z,14.90
2018-05-23T20:33:55.310Z,14.90
2018-05-23T20:36:22.849Z,14.90
2018-05-23T20:38:50.360Z,14.90
2018-05-23T20:41:18.288Z,14.90
2018-05-23T20:43:45.789Z,14.90
2018-05-23T20:46:13.318Z,14.90
2018-05-23T20:48:40.829Z,14.90
2018-05-23T20:51:08.357Z,15.00
2018-05-23T20:53:35.867Z,15.00
2018-05-23T20:56:03.400Z,15.00
2018-05-23T20:58:30.930Z,15.00
2018-05-23T21:00:58.537Z,14.90
2018-05-23T21:03:26.047Z,14.80
2018-05-23T21:05:53.976Z,14.80
2018-05-23T21:08:21.481Z,14.80
2018-05-23T21:10:49.477Z,14.80
2018-05-23T21:13:16.977Z,14.80
2018-05-23T21:15:44.510Z,14.90
2018-05-23T21:18:12.031Z,14.90
2018-05-23T21:20:39.573Z,15.00
2018-05-23T21:23:07.081Z,15.00
2018-05-23T21:25:34.630Z,15.00
2018-05-23T21:28:02.166Z,15.00
2018-05-23T21:30:29.894Z,15.00
2018-05-23T21:32:58.067Z,15.10
2018-05-23T21:35:25.596Z,15.00
2018-05-23T21:37:53.113Z,15.00
2018-05-23T21:40:20.664Z,15.00
2018-05-23T21:42:48.172Z,15.00
2018-05-23T21:45:15.729Z,15.00
2018-05-23T21:47:43.251Z,15.00
2018-05-23T21:50:10.790Z,15.00
2018-05-23T21:52:38.305Z,15.00
2018-05-23T21:55:06.003Z,15.00
2018-05-23T21:57:33.867Z,15.00
2018-05-23T22:00:01.377Z,14.90
2018-05-23T22:02:29.301Z,15.00
2018-05-23T22:04:56.801Z,15.00
2018-05-23T22:07:24.349Z,14.90
2018-05-23T22:09:51.857Z,15.00
2018-05-23T22:12:19.419Z,15.00
2018-05-23T22:14:48.335Z,15.00
2018-05-23T22:17:16.531Z,14.90
2018-05-23T22:19:44.042Z,14.90
2018-05-23T22:22:11.585Z,14.90
2018-05-23T22:24:39.209Z,14.80
2018-05-23T22:27:06.649Z,14.80
2018-05-23T22:29:34.553Z,14.80
2018-05-23T22:32:02.094Z,14.70
2018-05-23T22:34:29.604Z,14.70
2018-05-23T22:36:57.216Z,14.70
2018-05-23T22:39:24.726Z,14.70
2018-05-23T22:41:53.238Z,14.70
2018-05-23T22:44:20.758Z,14.60
2018-05-23T22:46:48.304Z,14.60
2018-05-23T22:49:15.809Z,14.60
2018-05-23T22:51:43.369Z,14.50
2018-05-23T22:54:10.875Z,14.40
2018-05-23T22:56:38.408Z,14.40
2018-05-23T22:59:05.920Z,14.40
2018-05-23T23:01:33.444Z,14.40
2018-05-23T23:04:00.965Z,14.40
2018-05-23T23:06:28.722Z,14.40
2018-05-23T23:08:56.230Z,14.40
2018-05-23T23:11:23.834Z,14.40
2018-05-23T23:13:51.352Z,14.30
2018-05-23T23:16:19.357Z,14.30
2018-05-23T23:18:46.866Z,14.30
2018-05-23T23:21:14.879Z,14.30
2018-05-23T23:23:42.399Z,14.30
2018-05-23T23:26:10.330Z,14.30
2018-05-23T23:28:37.834Z,14.30
2018-05-23T23:31:05.375Z,14.20
2018-05-23T23:33:33.373Z,14.20
2018-05-23T23:36:00.880Z,14.20
2018-05-23T23:38:28.410Z,14.20
2018-05-23T23:40:55.935Z,14.20
2018-05-23T23:43:23.462Z,14.20
2018-05-23T23:45:51.354Z,14.00
2018-05-23T23:48:18.913Z,14.00
2018-05-23T23:50:46.575Z,13.90
2018-05-23T23:53:14.225Z,13.90
2018-05-23T23:55:41.913Z,13.90
2018-05-23T23:58:09.458Z,13.80
